Time;durP1;ratioP1;P1;durP2;ratioP2;P2;SDS_P1;SDS_P2;PMS_P1;PMS_P2;Temp;Humidity;BMP_temperature;BMP_pressure;BME280_temperature;BME280_humidity;BME280_pressure;Samples;Min_cycle;Max_cycle;Signal;HPM_P1;HPM_P2
2023/10/12 00:01:05;;;;;;;8.82;2.90;;;19.80;91.20;;;;;;5946273;22;45086;-65
2023/10/12 00:03:37;;;;;;;6.75;2.88;;;19.70;91.10;;;;;;5944732;22;46008;-65
2023/10/12 00:06:09;;;;;;;11.95;3.80;;;19.70;91.30;;;;;;5972971;22;45080;-65
2023/10/12 00:08:36;;;;;;;6.25;2.63;;;19.70;91.30;;;;;;5972311;22;45274;-65
2023/10/12 00:11:37;;;;;;;7.38;2.70;;;19.70;91.20;;;;;;5938864;22;45576;-65
2023/10/12 00:14:41;;;;;;;10.70;3.05;;;19.70;91.30;;;;;;5949558;22;48069;-65
2023/10/12 00:17:09;;;;;;;17.60;3.78;;;19.80;91.60;;;;;;5950280;22;44911;-65
2023/10/12 00:19:38;;;;;;;13.07;3.05;;;19.70;91.00;;;;;;5956134;22;45245;-65
2023/10/12 00:22:11;;;;;;;12.15;3.17;;;19.70;91.00;;;;;;5980124;22;45001;-65
2023/10/12 00:25:04;;;;;;;8.88;2.80;;;19.70;91.50;;;;;;5920824;22;45528;-65
2023/10/12 00:27:57;;;;;;;14.55;3.20;;;19.80;91.30;;;;;;5990833;22;45193;-65
2023/10/12 00:30:24;;;;;;;12.52;3.45;;;19.70;91.00;;;;;;5956506;22;45062;-65
2023/10/12 00:36:27;;;;;;;13.73;3.00;;;19.60;91.00;;;;;;5918133;22;45667;-65
2023/10/12 00:39:20;;;;;;;10.80;3.17;;;19.70;91.70;;;;;;5960416;22;45040;-64
2023/10/12 00:41:48;;;;;;;8.13;3.50;;;19.60;91.00;;;;;;5957391;22;45258;-65
2023/10/12 00:44:18;;;;;;;18.48;3.70;;;19.60;91.20;;;;;;5938089;22;45117;-64
2023/10/12 00:47:43;;;;;;;11.50;2.60;;;19.50;91.00;;;;;;6012471;22;45982;-64
2023/10/12 00:56:01;;;;;;;10.80;3.20;;;19.60;91.30;;;;;;5937428;22;45309;-64
2023/10/12 00:58:59;;;;;;;10.48;3.35;;;19.50;91.20;;;;;;5965746;22;47386;-64
2023/10/12 01:01:48;;;;;;;15.00;3.25;;;19.50;90.70;;;;;;5967009;22;45391;-65
2023/10/12 01:04:17;;;;;;;11.75;3.53;;;19.40;90.70;;;;;;5955006;22;45221;-65
2023/10/12 01:07:19;;;;;;;10.45;2.88;;;19.40;90.50;;;;;;5953675;22;45509;-65
2023/10/12 01:10:06;;;;;;;12.13;3.20;;;19.40;90.40;;;;;;5951118;22;47018;-65
2023/10/12 01:12:37;;;;;;;16.77;3.10;;;19.40;90.60;;;;;;5968281;22;45157;-65
2023/10/12 01:15:08;;;;;;;9.90;3.25;;;19.40;90.40;;;;;;5960930;22;45083;-65
2023/10/12 01:17:43;;;;;;;11.88;2.75;;;19.40;90.40;;;;;;5942252;22;45368;-65
2023/10/12 01:20:26;;;;;;;15.07;2.80;;;19.40;91.20;;;;;;5933390;22;47241;-65
2023/10/12 01:22:58;;;;;;;16.90;2.70;;;19.30;90.70;;;;;;5949668;22;45454;-65
2023/10/12 01:25:51;;;;;;;10.60;3.20;;;19.30;91.10;;;;;;5980930;22;45268;-65
2023/10/12 01:28:20;;;;;;;10.43;3.30;;;19.20;92.30;;;;;;5949559;22;45106;-65
2023/10/12 01:30:47;;;;;;;14.00;3.72;;;19.10;93.20;;;;;;5948405;22;47259;-65
2023/10/12 01:33:27;;;;;;;9.55;3.58;;;18.90;93.30;;;;;;5938747;22;44847;-65
2023/10/12 01:35:56;;;;;;;10.07;3.28;;;18.90;93.10;;;;;;5948041;22;45227;-65
2023/10/12 01:38:36;;;;;;;11.52;3.38;;;18.90;93.40;;;;;;5951915;22;45393;-65
2023/10/12 01:41:25;;;;;;;11.85;3.30;;;18.90;92.80;;;;;;5932678;22;45665;-65
2023/10/12 01:44:11;;;;;;;9.02;3.10;;;18.90;93.30;;;;;;5947251;22;45620;-65
2023/10/12 01:46:49;;;;;;;14.25;3.35;;;18.80;93.70;;;;;;5943391;22;45084;-64
2023/10/12 01:49:45;;;;;;;14.20;3.55;;;18.80;93.30;;;;;;5976844;22;45422;-64
2023/10/12 01:52:36;;;;;;;12.88;3.42;;;18.70;93.40;;;;;;5940421;22;45283;-64
2023/10/12 01:55:30;;;;;;;14.32;3.40;;;18.60;96.40;;;;;;6019134;22;45110;-64
2023/10/12 01:58:06;;;;;;;9.85;3.35;;;18.40;96.40;;;;;;5951154;22;45186;-64
2023/10/12 02:00:52;;;;;;;7.93;3.42;;;18.40;96.20;;;;;;5975786;22;45066;-64
2023/10/12 02:03:43;;;;;;;10.00;3.78;;;18.30;99.90;;;;;;5985672;22;46188;-65
2023/10/12 02:06:13;;;;;;;11.45;3.42;;;17.90;99.90;;;;;;5962057;22;44920;-65
2023/10/12 02:08:54;;;;;;;15.60;3.72;;;17.80;99.90;;;;;;5957812;22;45229;-65
2023/10/12 02:14:33;;;;;;;12.20;4.00;;;17.80;99.90;;;;;;5896571;23;46267;-65
2023/10/12 02:17:26;;;;;;;11.18;4.35;;;17.60;99.90;;;;;;5956066;22;45254;-64
2023/10/12 02:20:12;;;;;;;13.95;4.40;;;17.60;99.90;;;;;;5959497;22;45027;-65
2023/10/12 02:25:32;;;;;;;22.52;4.63;;;17.60;99.90;;;;;;5928206;22;45242;-65
2023/10/12 02:28:37;;;;;;;8.50;4.63;;;17.30;99.90;;;;;;5944946;22;45212;-65
2023/10/12 02:31:38;;;;;;;10.20;4.20;;;17.10;99.90;;;;;;5954490;22;45386;-64
2023/10/12 02:34:29;;;;;;;18.85;4.82;;;16.90;99.90;;;;;;5946618;22;45325;-64
2023/10/12 02:39:53;;;;;;;9.23;4.65;;;17.10;99.90;;;;;;5938209;22;45250;-65
2023/10/12 02:45:21;;;;;;;8.15;4.15;;;17.10;99.90;;;;;;5946224;22;45298;-65
2023/10/12 02:47:48;;;;;;;9.48;4.60;;;17.10;99.90;;;;;;5963593;22;48369;-65
2023/10/12 02:50:26;;;;;;;12.32;4.78;;;17.10;99.90;;;;;;5938705;22;45194;-64
2023/10/12 02:53:28;;;;;;;8.57;3.88;;;17.30;99.90;;;;;;5940190;22;45390;-65
2023/10/12 02:56:06;;;;;;;7.00;4.22;;;17.40;99.90;;;;;;5956930;22;45287;-64
2023/10/12 02:59:08;;;;;;;12.75;4.38;;;17.50;99.90;;;;;;5954717;22;46312;-65
2023/10/12 03:01:42;;;;;;;8.85;4.50;;;17.60;99.90;;;;;;5968126;22;45405;-65
2023/10/12 03:04:45;;;;;;;13.77;4.60;;;17.70;99.90;;;;;;5943117;22;45246;-64
2023/10/12 03:07:31;;;;;;;6.95;3.35;;;17.70;99.90;;;;;;5963953;22;45402;-64
2023/10/12 03:12:44;;;;;;;5.22;2.92;;;18.10;99.90;;;;;;5945636;22;45206;-65
2023/10/12 03:15:56;;;;;;;5.82;3.22;;;18.50;99.90;;;;;;5971803;22;45280;-65
2023/10/12 03:18:27;;;;;;;7.38;2.63;;;18.50;99.90;;;;;;5944920;22;45238;-64
2023/10/12 03:21:11;;;;;;;7.57;2.85;;;18.90;99.90;;;;;;5956416;22;46480;-65
2023/10/12 03:23:57;;;;;;;5.75;2.88;;;19.20;99.90;;;;;;5925229;22;45219;-64
2023/10/12 03:26:35;;;;;;;5.50;3.28;;;19.20;99.90;;;;;;5970647;22;45146;-64
2023/10/12 03:32:52;;;;;;;11.57;3.53;;;19.20;99.90;;;;;;5912859;22;45317;-65
2023/10/12 03:35:34;;;;;;;12.05;2.88;;;19.10;99.90;;;;;;5978870;22;45155;-65
2023/10/12 03:38:25;;;;;;;7.55;2.97;;;19.20;99.90;;;;;;5944325;22;45170;-65
2023/10/12 03:44:36;;;;;;;7.07;3.33;;;19.20;99.90;;;;;;5847537;23;46777;-64
2023/10/12 03:47:16;;;;;;;5.75;2.70;;;19.50;99.90;;;;;;5889941;23;45224;-65
2023/10/12 03:50:06;;;;;;;3.72;2.45;;;19.60;99.90;;;;;;5929813;22;45442;-64
2023/10/12 03:52:51;;;;;;;8.60;3.00;;;19.70;99.90;;;;;;5939933;22;45446;-65
2023/10/12 03:55:27;;;;;;;7.60;3.53;;;19.80;99.90;;;;;;5986637;22;46556;-65
2023/10/12 04:01:25;;;;;;;7.03;2.95;;;19.80;99.90;;;;;;5944733;22;45193;-64
2023/10/12 04:04:20;;;;;;;5.85;3.40;;;19.90;99.90;;;;;;5931992;22;44945;-65
2023/10/12 04:13:07;;;;;;;5.80;3.28;;;20.00;99.90;;;;;;5956450;22;45180;-64
2023/10/12 04:16:09;;;;;;;8.00;3.05;;;20.00;99.90;;;;;;5981186;22;45300;-64
2023/10/12 04:19:09;;;;;;;8.57;3.97;;;20.00;99.90;;;;;;5918408;22;47573;-65
2023/10/12 04:21:36;;;;;;;6.85;3.53;;;20.00;99.90;;;;;;5956776;22;45048;-65
2023/10/12 04:24:32;;;;;;;5.55;3.22;;;20.00;99.90;;;;;;5972481;22;45406;-65
2023/10/12 04:27:50;;;;;;;7.60;3.88;;;20.10;99.90;;;;;;5958681;22;45323;-64
2023/10/12 04:33:37;;;;;;;4.20;2.95;;;20.10;99.90;;;;;;5945578;22;45435;-68
2023/10/12 04:36:44;;;;;;;4.82;3.08;;;20.20;99.90;;;;;;5924610;22;45502;-67
2023/10/12 04:39:24;;;;;;;8.88;3.28;;;20.10;99.90;;;;;;5956161;22;45202;-67
2023/10/12 04:42:12;;;;;;;5.53;3.03;;;20.00;99.90;;;;;;5953696;22;45280;-67
2023/10/12 04:45:23;;;;;;;7.85;3.25;;;20.10;99.90;;;;;;5946680;22;45119;-66
2023/10/12 04:48:21;;;;;;;6.75;2.85;;;20.10;99.90;;;;;;5944563;22;45607;-66
2023/10/12 04:50:52;;;;;;;7.03;2.90;;;20.10;99.90;;;;;;5951999;22;45320;-66
2023/10/12 04:56:28;;;;;;;8.55;3.67;;;20.00;99.90;;;;;;5935231;22;44887;-66
2023/10/12 04:59:43;;;;;;;5.13;2.50;;;20.00;99.90;;;;;;5947752;22;45344;-66
2023/10/12 05:11:30;;;;;;;7.18;2.35;;;19.90;99.90;;;;;;5911618;22;45340;-65
2023/10/12 05:14:01;;;;;;;8.52;3.40;;;20.00;99.90;;;;;;5945994;22;45377;-65
2023/10/12 05:16:30;;;;;;;9.35;3.65;;;20.00;99.90;;;;;;5954467;22;45984;-66
2023/10/12 05:18:59;;;;;;;6.22;3.38;;;20.00;99.90;;;;;;5955742;22;45075;-65
2023/10/12 05:21:58;;;;;;;8.30;3.70;;;20.00;99.90;;;;;;5939114;22;45348;-65
2023/10/12 05:24:32;;;;;;;8.57;4.40;;;20.00;99.90;;;;;;5940302;22;45085;-65
2023/10/12 05:27:33;;;;;;;6.88;3.80;;;20.10;99.90;;;;;;5966453;22;45028;-65
2023/10/12 05:30:31;;;;;;;6.47;3.22;;;20.10;99.90;;;;;;5971285;22;45094;-65
2023/10/12 05:33:04;;;;;;;8.30;3.92;;;20.10;99.90;;;;;;5944597;22;45200;-65
2023/10/12 05:35:52;;;;;;;9.13;3.45;;;20.10;99.90;;;;;;5947653;22;44921;-65
2023/10/12 05:38:51;;;;;;;11.85;3.50;;;20.10;99.90;;;;;;5960778;22;47006;-65
2023/10/12 05:41:23;;;;;;;7.03;3.45;;;20.00;99.90;;;;;;5963246;22;45378;-66
2023/10/12 05:46:40;;;;;;;4.82;3.20;;;20.10;99.90;;;;;;5964481;22;45244;-66
2023/10/12 05:49:37;;;;;;;7.60;3.38;;;20.10;99.90;;;;;;5935014;22;46183;-65
2023/10/12 05:52:31;;;;;;;8.48;3.10;;;20.00;99.90;;;;;;5975162;22;45324;-65
2023/10/12 05:55:21;;;;;;;8.57;3.00;;;20.10;99.90;;;;;;5952022;22;45007;-66
2023/10/12 05:57:49;;;;;;;11.80;3.22;;;20.00;99.90;;;;;;5939132;22;44847;-65
2023/10/12 06:00:52;;;;;;;9.63;3.83;;;20.00;99.90;;;;;;5982362;22;46473;-66
2023/10/12 06:06:03;;;;;;;12.18;3.50;;;20.00;99.90;;;;;;5945768;22;45084;-65
2023/10/12 06:08:55;;;;;;;5.30;2.80;;;20.00;99.90;;;;;;5969332;22;45400;-66
2023/10/12 06:11:26;;;;;;;6.30;2.70;;;20.10;99.90;;;;;;5975412;22;46278;-66
2023/10/12 06:14:05;;;;;;;7.97;3.35;;;20.10;99.90;;;;;;5956675;22;45419;-66
2023/10/12 06:16:39;;;;;;;7.80;2.80;;;20.10;99.90;;;;;;5952020;22;45308;-65
2023/10/12 06:22:33;;;;;;;5.57;3.35;;;20.10;99.90;;;;;;5913486;22;44967;-64
2023/10/12 06:25:18;;;;;;;7.03;2.90;;;20.10;99.90;;;;;;5960050;22;45176;-66
2023/10/12 06:28:14;;;;;;;8.82;3.80;;;20.10;99.90;;;;;;5935012;22;45390;-68
2023/10/12 06:31:09;;;;;;;8.02;3.40;;;20.10;99.90;;;;;;5944949;22;45198;-69
2023/10/12 06:33:49;;;;;;;4.43;2.70;;;20.20;99.90;;;;;;5937976;22;45876;-68
2023/10/12 06:36:40;;;;;;;6.60;3.78;;;20.10;99.90;;;;;;5966094;22;45215;-68
2023/10/12 06:42:27;;;;;;;7.70;2.85;;;20.10;99.90;;;;;;5953770;22;45267;-68
2023/10/12 06:45:15;;;;;;;6.57;3.50;;;20.10;99.90;;;;;;5951318;22;45429;-68
2023/10/12 06:47:44;;;;;;;6.68;3.30;;;20.10;99.90;;;;;;5965745;22;45272;-67
2023/10/12 06:52:57;;;;;;;5.65;3.85;;;20.10;99.90;;;;;;5951901;22;45173;-70
2023/10/12 06:55:39;;;;;;;7.45;3.00;;;20.10;99.90;;;;;;5960853;22;46454;-69
2023/10/12 06:58:36;;;;;;;6.88;3.10;;;20.10;99.90;;;;;;5941924;22;45060;-69
2023/10/12 07:01:27;;;;;;;6.25;2.95;;;20.10;99.90;;;;;;5961605;22;45259;-69
2023/10/12 07:04:15;;;;;;;11.25;3.95;;;20.10;99.90;;;;;;5994218;22;45204;-69
2023/10/12 07:06:56;;;;;;;6.32;3.35;;;20.20;99.90;;;;;;5956657;22;46610;-68
2023/10/12 07:09:46;;;;;;;8.05;3.45;;;20.20;99.90;;;;;;5943612;22;45086;-68
2023/10/12 07:12:42;;;;;;;7.32;3.80;;;20.20;99.90;;;;;;5973093;22;45091;-67
2023/10/12 07:15:52;;;;;;;7.18;3.22;;;20.20;99.90;;;;;;5963430;22;45162;-67
2023/10/12 07:18:22;;;;;;;7.75;3.88;;;20.20;99.90;;;;;;5960700;22;46559;-68
2023/10/12 07:20:50;;;;;;;6.95;3.72;;;20.20;99.90;;;;;;5946340;22;45378;-67
2023/10/12 07:23:52;;;;;;;6.75;3.63;;;20.20;99.90;;;;;;5949526;22;45411;-67
2023/10/12 07:26:22;;;;;;;6.60;3.53;;;20.20;99.90;;;;;;5940040;22;45252;-67
2023/10/12 07:28:49;;;;;;;5.13;3.40;;;20.20;99.90;;;;;;5930717;22;46488;-67
2023/10/12 07:31:48;;;;;;;6.65;3.05;;;20.20;99.90;;;;;;5973093;22;45191;-67
2023/10/12 07:41:28;;;;;;;8.30;3.42;;;20.20;99.90;;;;;;5959602;22;45322;-67
2023/10/12 07:44:14;;;;;;;8.40;3.58;;;20.20;99.90;;;;;;5941938;22;45211;-67
2023/10/12 07:47:14;;;;;;;9.68;4.13;;;20.20;99.90;;;;;;5949588;22;44770;-66
2023/10/12 07:50:25;;;;;;;6.63;3.28;;;20.20;99.90;;;;;;5933297;22;45333;-66
2023/10/12 07:56:00;;;;;;;6.60;3.20;;;20.20;99.90;;;;;;5956720;22;45252;-66
2023/10/12 07:58:29;;;;;;;12.13;3.60;;;20.20;99.90;;;;;;5952045;22;45272;-66
2023/10/12 08:01:38;;;;;;;5.65;3.40;;;20.20;99.90;;;;;;5948983;22;45088;-66
2023/10/12 08:04:39;;;;;;;5.18;3.42;;;20.20;99.90;;;;;;6009828;22;46680;-66
2023/10/12 08:07:27;;;;;;;5.78;3.35;;;20.20;99.90;;;;;;5964081;22;45625;-66
2023/10/12 08:10:56;;;;;;;6.97;2.75;;;20.20;99.90;;;;;;5967074;22;45254;-66
2023/10/12 08:22:09;;;;;;;8.35;3.97;;;20.20;99.90;;;;;;5927463;22;45307;-65
2023/10/12 08:25:04;;;;;;;6.10;3.55;;;20.20;99.90;;;;;;5951212;22;45266;-65
2023/10/12 08:27:52;;;;;;;8.75;4.15;;;20.20;99.90;;;;;;5943379;22;45268;-65
2023/10/12 08:31:20;;;;;;;7.03;3.28;;;20.20;99.90;;;;;;5976900;22;45154;-65
2023/10/12 08:37:17;;;;;;;8.02;3.28;;;20.20;99.90;;;;;;5965462;22;45375;-65
2023/10/12 08:39:51;;;;;;;7.85;3.53;;;20.20;99.90;;;;;;5953839;22;46234;-65
2023/10/12 08:42:54;;;;;;;8.02;3.22;;;20.30;99.90;;;;;;5957973;22;45264;-65
2023/10/12 08:48:43;;;;;;;9.85;3.40;;;20.30;99.90;;;;;;5949347;22;45233;-65
2023/10/12 08:51:29;;;;;;;7.18;3.13;;;20.30;99.90;;;;;;5948606;22;48337;-65
2023/10/12 08:54:20;;;;;;;5.40;2.42;;;20.30;99.90;;;;;;5963360;22;45188;-65
2023/10/12 08:56:49;;;;;;;6.45;3.33;;;20.30;99.90;;;;;;5946269;22;45086;-65
2023/10/12 08:59:38;;;;;;;6.00;3.30;;;20.30;99.90;;;;;;5956486;22;45334;-65
2023/10/12 09:02:19;;;;;;;8.68;3.28;;;20.30;99.90;;;;;;5936925;22;47525;-65
2023/10/12 09:05:12;;;;;;;5.80;3.42;;;20.20;99.90;;;;;;5971182;22;45261;-65
2023/10/12 09:11:02;;;;;;;5.10;2.90;;;20.30;99.90;;;;;;5962296;22;45318;-65
2023/10/12 09:13:30;;;;;;;5.05;2.67;;;20.30;99.90;;;;;;5972043;22;47364;-65
2023/10/12 09:16:17;;;;;;;5.05;2.78;;;20.30;99.90;;;;;;5969470;22;44860;-65
2023/10/12 09:22:27;;;;;;;8.18;3.42;;;20.30;99.90;;;;;;5910923;22;45195;-65
2023/10/12 09:25:05;;;;;;;6.78;3.10;;;20.30;99.90;;;;;;5948837;22;46283;-65
2023/10/12 09:27:49;;;;;;;5.50;3.67;;;20.30;99.90;;;;;;5940727;22;45107;-65
2023/10/12 09:30:50;;;;;;;8.65;3.10;;;20.30;99.90;;;;;;5952540;22;45436;-65
2023/10/12 09:33:54;;;;;;;5.80;3.30;;;20.30;99.90;;;;;;5985629;22;45095;-64
2023/10/12 09:36:55;;;;;;;5.68;2.47;;;20.30;99.90;;;;;;5969718;22;47545;-65
2023/10/12 09:39:40;;;;;;;7.78;3.28;;;20.30;99.90;;;;;;5943706;22;45128;-65
2023/10/12 09:42:34;;;;;;;5.72;2.80;;;20.30;99.90;;;;;;5932487;22;45059;-65
2023/10/12 09:45:11;;;;;;;5.53;3.17;;;20.30;99.90;;;;;;5971112;22;45266;-64
2023/10/12 09:47:57;;;;;;;7.90;2.88;;;20.30;99.90;;;;;;5941765;22;46233;-65
2023/10/12 09:50:41;;;;;;;4.85;2.97;;;20.30;99.90;;;;;;5952631;22;45124;-65
2023/10/12 10:12:04;;;;;;;6.20;3.47;;;20.30;99.90;;;;;;6193146;22;1256710;-64
2023/10/12 10:14:34;;;;;;;7.05;3.35;;;20.30;99.90;;;;;;6067932;22;45427;-64
2023/10/12 10:17:47;;;;;;;7.60;3.17;;;20.20;99.90;;;;;;6054296;22;45182;-64
2023/10/12 10:23:57;;;;;;;6.65;3.22;;;20.20;99.90;;;;;;6072062;22;45300;-63
2023/10/12 10:26:38;;;;;;;9.02;3.42;;;20.20;99.90;;;;;;6038325;22;45230;-64
2023/10/12 10:29:17;;;;;;;8.52;3.63;;;20.30;99.90;;;;;;6029052;22;47218;-64
2023/10/12 10:31:56;;;;;;;6.22;3.28;;;20.30;99.90;;;;;;6044577;22;45189;-64
2023/10/12 10:34:46;;;;;;;8.85;3.40;;;20.30;99.90;;;;;;6060248;22;45340;-64
2023/10/12 10:37:57;;;;;;;5.72;2.65;;;20.30;99.90;;;;;;6055731;22;45295;-64
2023/10/12 10:41:05;;;;;;;7.10;3.30;;;20.40;99.90;;;;;;6049180;22;46015;-64
2023/10/12 10:43:41;;;;;;;4.72;2.92;;;20.40;99.90;;;;;;6062948;22;45291;-64
2023/10/12 10:46:18;;;;;;;7.75;3.60;;;20.40;99.90;;;;;;6061880;22;45255;-64
2023/10/12 10:49:06;;;;;;;6.97;3.22;;;20.40;99.90;;;;;;6060794;22;45171;-64
2023/10/12 10:52:13;;;;;;;5.28;3.00;;;20.40;99.90;;;;;;6035863;22;46333;-65
2023/10/12 10:55:02;;;;;;;4.63;2.60;;;20.40;99.90;;;;;;6059927;22;45317;-65
2023/10/12 10:57:56;;;;;;;6.38;3.33;;;20.40;99.90;;;;;;6099138;22;45214;-65
2023/10/12 11:00:33;;;;;;;6.78;3.25;;;20.40;99.90;;;;;;6035099;22;45291;-64
2023/10/12 11:07:21;;;;;;;8.27;3.63;;;20.40;99.90;;;;;;6054444;22;45255;-66
2023/10/12 11:13:32;;;;;;;11.98;4.05;;;20.40;99.90;;;;;;6035307;22;45353;-68
2023/10/12 11:19:13;;;;;;;10.48;4.15;;;20.30;99.90;;;;;;6071489;22;45340;-67
2023/10/12 11:22:02;;;;;;;6.53;2.78;;;20.20;99.90;;;;;;6098520;22;45279;-68
2023/10/12 11:24:36;;;;;;;8.70;3.97;;;20.30;99.90;;;;;;6088462;22;45365;-68
2023/10/12 11:27:03;;;;;;;9.90;4.38;;;20.20;99.90;;;;;;6089083;22;46518;-67
2023/10/12 11:30:07;;;;;;;9.05;4.28;;;20.20;99.90;;;;;;6095039;22;45165;-67
2023/10/12 11:33:09;;;;;;;11.50;4.40;;;20.10;99.90;;;;;;6105260;22;45097;-68
2023/10/12 11:35:53;;;;;;;7.95;4.57;;;20.10;99.90;;;;;;6076326;22;45442;-67
2023/10/12 11:38:51;;;;;;;8.80;3.67;;;20.10;99.90;;;;;;6068931;22;46130;-66
2023/10/12 11:41:31;;;;;;;7.20;4.07;;;20.10;99.90;;;;;;6066023;22;45277;-67
2023/10/12 11:45:07;;;;;;;8.25;4.50;;;20.10;99.90;;;;;;6065222;22;45350;-67
2023/10/12 11:47:38;;;;;;;10.30;3.92;;;20.10;99.90;;;;;;6102231;22;45372;-66
2023/10/12 11:50:14;;;;;;;8.00;4.05;;;20.10;99.90;;;;;;6090618;22;47491;-67
2023/10/12 11:53:08;;;;;;;7.60;3.60;;;20.00;99.90;;;;;;6087409;22;45570;-66
2023/10/12 11:55:35;;;;;;;14.40;4.65;;;20.10;99.90;;;;;;6105919;22;45318;-67
2023/10/12 11:58:34;;;;;;;13.38;5.10;;;20.20;99.90;;;;;;6080815;22;45431;-66
2023/10/12 12:01:33;;;;;;;16.65;5.55;;;20.10;99.90;;;;;;6053890;22;47421;-66
2023/10/12 12:04:31;;;;;;;15.00;3.90;;;20.10;99.90;;;;;;6083663;22;45311;-66
2023/10/12 12:10:56;;;;;;;8.82;3.15;;;20.00;99.90;;;;;;6055952;22;45107;-66
2023/10/12 12:13:23;;;;;;;11.82;4.20;;;19.70;99.90;;;;;;6095438;22;46264;-66
2023/10/12 12:15:58;;;;;;;9.80;3.40;;;19.60;99.90;;;;;;6078170;22;45358;-65
2023/10/12 12:18:29;;;;;;;9.82;3.85;;;19.60;99.90;;;;;;6063288;22;45285;-65
2023/10/12 12:20:58;;;;;;;8.48;3.40;;;19.70;99.90;;;;;;6066252;22;45199;-64
2023/10/12 12:23:32;;;;;;;7.25;3.10;;;19.70;99.90;;;;;;6075271;22;46536;-65
2023/10/12 12:26:35;;;;;;;9.43;3.28;;;19.70;99.90;;;;;;6096905;22;45253;-63
2023/10/12 12:29:41;;;;;;;11.50;3.35;;;19.80;99.90;;;;;;6079753;22;45318;-65
2023/10/12 12:32:26;;;;;;;8.63;3.03;;;19.90;99.90;;;;;;6094658;22;45164;-63
2023/10/12 12:35:11;;;;;;;11.95;3.88;;;19.90;99.90;;;;;;6081941;22;47461;-66
2023/10/12 12:38:00;;;;;;;10.75;3.03;;;20.00;99.90;;;;;;6096689;22;45200;-68
2023/10/12 12:40:39;;;;;;;7.57;3.00;;;19.90;99.90;;;;;;6088308;22;45459;-68
2023/10/12 12:43:07;;;;;;;10.40;3.55;;;19.80;99.90;;;;;;6063524;22;45346;-67
2023/10/12 12:45:36;;;;;;;7.53;3.00;;;19.80;99.90;;;;;;6099317;22;45533;-67
2023/10/12 12:48:05;;;;;;;7.93;3.55;;;19.70;99.90;;;;;;6071452;22;45352;-67
2023/10/12 12:50:33;;;;;;;7.93;3.20;;;19.80;99.90;;;;;;6088550;22;45099;-67
2023/10/12 12:53:00;;;;;;;8.88;3.15;;;19.80;99.90;;;;;;6056327;22;45408;-67
2023/10/12 12:55:39;;;;;;;9.10;3.67;;;19.60;99.90;;;;;;6055656;22;45767;-67
2023/10/12 12:58:06;;;;;;;8.30;3.45;;;19.60;99.90;;;;;;6087151;22;45330;-67
2023/10/12 13:00:35;;;;;;;10.80;3.53;;;19.60;99.90;;;;;;6119446;22;45162;-67
2023/10/12 13:03:30;;;;;;;8.43;3.85;;;19.60;99.90;;;;;;6077528;22;45033;-67
2023/10/12 13:08:53;;;;;;;9.95;3.63;;;19.60;99.90;;;;;;6083842;22;45108;-67
2023/10/12 13:11:22;;;;;;;10.88;4.03;;;19.40;99.90;;;;;;6066203;22;45183;-66
2023/10/12 13:14:19;;;;;;;15.82;4.18;;;19.30;99.90;;;;;;6089832;22;45192;-62
2023/10/12 13:16:46;;;;;;;9.70;3.92;;;19.30;99.90;;;;;;6072394;22;46612;-67
2023/10/12 13:19:20;;;;;;;10.93;3.65;;;19.10;99.90;;;;;;6083775;22;45231;-63
2023/10/12 13:21:50;;;;;;;7.90;3.90;;;19.10;99.90;;;;;;6083254;22;45130;-68
2023/10/12 13:24:28;;;;;;;8.65;3.53;;;19.20;99.90;;;;;;6092725;22;45235;-70
2023/10/12 13:26:55;;;;;;;10.90;4.38;;;19.10;99.90;;;;;;6090086;22;47458;-70
2023/10/12 13:29:36;;;;;;;13.40;4.53;;;19.10;99.90;;;;;;6098442;22;45018;-69
2023/10/12 13:32:30;;;;;;;14.70;4.93;;;19.20;99.90;;;;;;6115802;22;45091;-68
2023/10/12 13:38:03;;;;;;;11.77;4.00;;;19.10;99.90;;;;;;6086870;22;45371;-69
2023/10/12 13:40:50;;;;;;;8.98;3.83;;;19.20;99.90;;;;;;6071320;22;45196;-68
2023/10/12 13:43:21;;;;;;;12.75;4.55;;;19.10;99.90;;;;;;6073707;22;45080;-68
2023/10/12 13:46:07;;;;;;;10.35;3.80;;;19.20;99.90;;;;;;6083352;22;45137;-68
2023/10/12 13:48:38;;;;;;;12.98;4.20;;;19.30;99.90;;;;;;6084546;22;46606;-68
2023/10/12 13:51:08;;;;;;;6.95;2.88;;;19.30;99.90;;;;;;6088982;22;45289;-68
2023/10/12 13:54:04;;;;;;;9.32;3.58;;;19.40;99.90;;;;;;6076187;22;45262;-68
2023/10/12 13:56:56;;;;;;;6.63;2.70;;;19.50;99.90;;;;;;6093576;22;45453;-68
2023/10/12 13:59:50;;;;;;;6.90;3.15;;;19.60;99.90;;;;;;6078450;22;46646;-68
2023/10/12 14:02:39;;;;;;;10.85;3.28;;;19.40;99.90;;;;;;6091871;22;45310;-67
2023/10/12 14:05:08;;;;;;;7.38;2.63;;;19.30;99.90;;;;;;6079471;22;45156;-67
2023/10/12 14:07:58;;;;;;;9.52;3.10;;;19.60;99.90;;;;;;6082700;22;45287;-67
2023/10/12 14:10:27;;;;;;;8.20;3.00;;;19.80;99.90;;;;;;6070944;22;47463;-67
2023/10/12 14:13:16;;;;;;;6.30;3.20;;;19.90;99.90;;;;;;6127740;22;45718;-67
2023/10/12 14:15:43;;;;;;;5.38;2.85;;;20.00;99.90;;;;;;6088203;22;45215;-67
2023/10/12 14:18:37;;;;;;;6.15;3.15;;;20.10;99.90;;;;;;6115940;22;45622;-67
2023/10/12 14:23:58;;;;;;;5.85;2.90;;;20.00;99.90;;;;;;6049304;22;45186;-68
2023/10/12 14:26:25;;;;;;;9.80;3.13;;;20.00;99.90;;;;;;6104112;22;45133;-70
2023/10/12 14:29:24;;;;;;;6.20;2.45;;;20.00;99.90;;;;;;6100733;22;45512;-70
2023/10/12 14:31:52;;;;;;;10.82;3.20;;;20.10;99.90;;;;;;6116175;22;46487;-66
2023/10/12 14:34:19;;;;;;;9.80;3.00;;;20.00;99.90;;;;;;6086001;22;45374;-67
2023/10/12 14:36:46;;;;;;;4.68;2.42;;;19.90;99.90;;;;;;6097707;22;45225;-69
2023/10/12 14:39:22;;;;;;;4.18;2.70;;;19.80;99.90;;;;;;6112177;22;45269;-70
2023/10/12 14:42:22;;;;;;;6.85;3.05;;;19.50;99.90;;;;;;6047346;22;45274;-70
2023/10/12 14:45:15;;;;;;;7.43;3.25;;;19.30;99.90;;;;;;6105353;22;45161;-69
2023/10/12 14:47:46;;;;;;;6.43;2.67;;;19.20;99.90;;;;;;6102034;22;45582;-68
2023/10/12 14:50:27;;;;;;;8.98;3.05;;;19.10;99.90;;;;;;6094190;22;45504;-68
2023/10/12 14:53:16;;;;;;;8.35;3.45;;;19.10;99.90;;;;;;6063799;22;47507;-68
2023/10/12 14:56:10;;;;;;;7.28;3.42;;;18.90;99.90;;;;;;6085860;22;45426;-67
2023/10/12 14:58:50;;;;;;;7.57;3.20;;;18.90;99.90;;;;;;6082179;22;45194;-68
2023/10/12 15:03:58;;;;;;;5.40;2.80;;;19.20;99.90;;;;;;6076047;22;45440;-67
2023/10/12 15:06:25;;;;;;;7.63;3.22;;;19.20;99.90;;;;;;6076991;22;45245;-67
2023/10/12 15:08:53;;;;;;;8.35;3.00;;;19.30;99.90;;;;;;6076834;22;45364;-67
2023/10/12 15:11:34;;;;;;;7.35;2.58;;;19.50;99.90;;;;;;6073800;22;45361;-67
2023/10/12 15:14:12;;;;;;;9.10;3.05;;;19.40;99.90;;;;;;6101432;22;46600;-67
2023/10/12 15:16:52;;;;;;;7.22;2.58;;;19.30;99.90;;;;;;6085711;22;45182;-67
2023/10/12 15:19:32;;;;;;;6.03;3.20;;;19.60;99.90;;;;;;6087805;22;45284;-67
2023/10/12 15:22:33;;;;;;;5.95;2.40;;;19.60;99.90;;;;;;6097492;22;45521;-67
2023/10/12 15:25:01;;;;;;;5.13;2.70;;;19.60;99.90;;;;;;6077639;22;47210;-67
2023/10/12 15:27:49;;;;;;;5.00;2.03;;;19.60;99.90;;;;;;6159573;22;45242;-67
2023/10/12 15:30:29;;;;;;;7.05;2.90;;;19.80;99.90;;;;;;6075539;22;45097;-67
2023/10/12 15:33:40;;;;;;;8.70;2.40;;;19.90;99.90;;;;;;6095195;22;45282;-66
2023/10/12 15:36:19;;;;;;;6.05;2.75;;;19.90;99.90;;;;;;6076120;22;46164;-67
2023/10/12 15:38:54;;;;;;;9.00;3.15;;;19.80;99.90;;;;;;6082571;22;45063;-67
2023/10/12 15:41:45;;;;;;;3.92;2.17;;;19.90;99.90;;;;;;6066883;22;45258;-67
2023/10/12 15:44:39;;;;;;;9.07;3.15;;;20.00;99.90;;;;;;6102934;22;45125;-67
2023/10/12 15:47:41;;;;;;;8.82;3.60;;;20.00;99.90;;;;;;6062106;22;48186;-67
2023/10/12 15:50:29;;;;;;;4.80;2.10;;;20.00;99.90;;;;;;6086606;22;45479;-67
2023/10/12 15:52:56;;;;;;;4.97;2.40;;;20.00;99.90;;;;;;6088409;22;45281;-67
2023/10/12 15:55:35;;;;;;;11.15;3.50;;;20.00;99.90;;;;;;6102978;22;45185;-65
2023/10/12 15:58:17;;;;;;;9.43;3.38;;;19.80;99.90;;;;;;6082882;22;47629;-65
2023/10/12 16:01:14;;;;;;;11.18;3.65;;;19.30;99.90;;;;;;6099253;22;45425;-65
2023/10/12 16:04:08;;;;;;;6.57;3.13;;;19.10;99.90;;;;;;6089073;22;45429;-65
2023/10/12 16:06:37;;;;;;;11.95;4.00;;;19.10;99.90;;;;;;6065334;22;45336;-65
2023/10/12 16:09:09;;;;;;;11.30;3.42;;;19.20;99.90;;;;;;6084550;22;45391;-66
2023/10/12 16:12:16;;;;;;;9.02;3.20;;;19.10;99.90;;;;;;6098636;22;45281;-65
2023/10/12 16:14:55;;;;;;;12.32;4.28;;;19.30;99.90;;;;;;6078294;22;45319;-65
2023/10/12 16:17:36;;;;;;;6.60;3.00;;;19.10;99.90;;;;;;6120847;22;45071;-65
2023/10/12 16:20:34;;;;;;;12.43;4.05;;;19.20;99.90;;;;;;6079973;22;47624;-65
2023/10/12 16:23:19;;;;;;;11.05;3.95;;;19.10;99.90;;;;;;6084502;22;45086;-64
2023/10/12 16:26:13;;;;;;;11.98;3.80;;;18.80;99.90;;;;;;6075355;22;45229;-65
2023/10/12 16:28:41;;;;;;;9.05;3.10;;;18.60;99.90;;;;;;6073535;22;45139;-68
2023/10/12 16:31:18;;;;;;;12.45;4.18;;;18.60;99.90;;;;;;6107518;22;47280;-69
2023/10/12 16:33:51;;;;;;;6.72;3.10;;;18.80;99.90;;;;;;6077578;22;45347;-70
2023/10/12 16:36:23;;;;;;;11.75;3.40;;;19.10;99.90;;;;;;6059880;22;45414;-69
2023/10/12 16:39:00;;;;;;;14.18;4.30;;;19.10;99.90;;;;;;6058830;22;45248;-68